Huvudsida
METAR-TAF:

METAR-TAF

Flygplatser :

Al Najafflygplats

Najaf, Irak

latitud: 31-59-23N, longitud: 44-24-15E, höjd: 31 m

Aktuellt väderrapport

Denna rapport gjordes för 39 minuter sedan, klockan 13:00 UTC
Vind 6 kt från väst
Temperatur 27°C
Fuktighet 16%
Tryck 1017 hPa
Sikt: 8000 m

METAR: ORNI 121300Z 28006KT 8000 NSC 27/M01 Q1017 NOSIG

Tid: 16:39 (13:39 UTC)

Väderprognos

Denna rapport gjordes för 3 timmar och 39 minuter sedan, klockan 10:00 UTC
Prognos gäller från 12 kl. 12 UTC till 13 kl. 12 UTC
Vind 6 kt från väst
Sikt: 8000 m
Spridda moln på en höjd av 3000 ft
Spridda moln på en höjd av 5000 ft

TAF: ORNI 121000Z 1212/1312 26006KT 8000 SCT030 SCT050

Aktuella väderrapporter och prognoser från 4000 flygplatser (METAR- och TAF-rapporter).

De tillgängliga stationerna syns som gula och röda prickar på kartan.

För musen över prickarna för att se namnen på stationerna.

Klicka sedan för att få väderrapporter och prognoser.

För att ändra kartan: Klicka på de gröna knapparna med ett svart kors på för att zooma in; den gröna knappen med ett streck på för att zooma ut; eller på de gröna pilarna för angränsande kartor.


METAR-TAF: